Terminal Aerodrome Forecast
Issued by NWS Detroit/Pontiac, MI

Home | Current Version | Previous Version | Text Only | Print | Product List | Glossary On
Versions: 1 2 3 4 5 6 7 8 9 10 11 12 13 14 15 16 17 18 19 20 21 22 23 24
189
FTUS43 KDTX 272327
TAFDTW
TAF
KDTW 272327Z 2800/2906 24016G26KT P6SM OVC040
      TEMPO 2800/2804 OVC025
     FM280700 24013KT P6SM SCT040
     FM281400 20010KT P6SM SCT100 BKN250
     FM282000 16005KT P6SM SCT060 OVC100
     FM290100 09005KT 6SM -SHRA OVC040=

USA.gov is the U.S. government's official web portal to all federal, state and local government web resources and services.